Lincoln, Iowa
Current Conditions -  °F | °C
As of 6:53 PM on Wednesday 22 Oct 2014 (Local Time) from KMIW Reporting Station
Overcast Overcast  
Wind Chill: 58°   Ceiling: 3500
Heat Index: 58°   Visibility: 10mi
Dew Point: 42°   Wind: 13mph
Humidity: 56%   Direction: 140°SE
Pressure: 30.13"   Gusts: 21mph
Location:  42.26°N, 92.69°W
Report Text: KMIW 222353Z AUTO 14011G18KT 10SM OVC035 14/06 A3013 RMK AO2 SLP207 T01440056 10167 20139 55005
Loading
Personal Weather Stations






























Interactive Weather Map
Tropical Storm Tracking
New forecast layout! Learn more

10-Day Weather Forecast

Advertisements
Track Severe Weather on mobile